Time;durP1;ratioP1;P1;durP2;ratioP2;P2;SDS_P1;SDS_P2;PMS_P1;PMS_P2;Temp;Humidity;BMP_temperature;BMP_pressure;BME280_temperature;BME280_humidity;BME280_pressure;Samples;Min_cycle;Max_cycle;Signal;HPM_P1;HPM_P2
2023/10/26 00:02:20;;;;;;;40.47;22.17;;;;;;;-144.30;100.00;85527.63;5032499;28;20208;-85
2023/10/26 00:04:47;;;;;;;37.57;21.53;;;;;;;-144.30;100.00;85527.63;5032769;28;20217;-85
2023/10/26 00:07:14;;;;;;;43.50;23.00;;;;;;;-144.30;100.00;85517.69;5032837;28;20212;-85
2023/10/26 00:09:42;;;;;;;44.00;23.10;;;;;;;-144.30;100.00;85535.59;5034387;28;20197;-85
2023/10/26 00:12:09;;;;;;;42.27;22.27;;;;;;;-144.30;100.00;85523.66;5033993;28;20730;-85
2023/10/26 00:14:36;;;;;;;44.77;22.80;;;;;;;-144.30;100.00;85426.25;5030477;28;20189;-85
2023/10/26 00:17:03;;;;;;;42.47;22.30;;;;;;;-144.30;100.00;85525.66;5030843;28;20207;-86
2023/10/26 00:19:30;;;;;;;45.87;23.20;;;;;;;-144.30;100.00;85499.81;5031069;28;20208;-85
2023/10/26 00:21:57;;;;;;;37.37;20.90;;;;;;;-144.30;100.00;85559.44;5031333;28;20203;-85
2023/10/26 00:24:24;;;;;;;44.47;22.70;;;;;;;-144.30;100.00;85499.81;5033382;28;20307;-85
2023/10/26 00:26:52;;;;;;;40.27;21.83;;;;;;;-144.30;100.00;85521.69;5033360;28;20185;-85
2023/10/26 00:29:19;;;;;;;40.87;21.67;;;;;;;-144.30;100.00;85523.66;5034169;28;20245;-85
2023/10/26 00:31:46;;;;;;;37.17;22.53;;;;;;;-144.30;100.00;85527.63;5032871;28;20203;-85
2023/10/26 00:34:13;;;;;;;39.50;20.40;;;;;;;-144.30;100.00;85499.81;5033215;28;20584;-84
2023/10/26 00:36:40;;;;;;;39.67;20.73;;;;;;;-144.30;100.00;85493.84;5032262;28;20696;-85
2023/10/26 00:39:07;;;;;;;50.30;22.50;;;;;;;-144.30;100.00;85499.81;5032549;28;20203;-85
2023/10/26 00:41:34;;;;;;;37.60;20.20;;;;;;;-144.30;100.00;85531.63;5031985;28;20201;-85
2023/10/26 00:44:02;;;;;;;35.90;20.83;;;;;;;-144.30;100.00;85535.59;5031686;28;20189;-84
2023/10/26 00:46:29;;;;;;;48.97;22.27;;;;;;;-144.30;100.00;85491.84;5031386;28;20225;-86
2023/10/26 00:48:56;;;;;;;43.23;21.53;;;;;;;-144.30;100.00;85551.50;5032187;28;20201;-86
2023/10/26 00:51:24;;;;;;;43.00;20.93;;;;;;;-144.30;100.00;85491.84;5031080;28;20595;-85
2023/10/26 00:53:51;;;;;;;44.57;22.07;;;;;;;-144.30;100.00;85503.78;5031324;28;20319;-85
2023/10/26 00:56:22;;;;;;;45.17;22.13;;;;;;;-144.30;100.00;85535.59;5031585;28;20662;-84
2023/10/26 00:58:49;;;;;;;40.97;20.63;;;;;;;-144.30;100.00;85541.56;5030779;28;20197;-85
2023/10/26 01:01:20;;;;;;;46.87;21.27;;;;;;;-144.30;100.00;85549.50;5030646;28;20604;-84
2023/10/26 01:03:47;;;;;;;39.93;22.57;;;;;;;-144.30;100.00;85555.47;5030687;28;20197;-85
2023/10/26 01:06:14;;;;;;;39.80;22.47;;;;;;;-144.30;100.00;85531.63;5030751;28;20229;-86
2023/10/26 01:08:41;;;;;;;46.03;23.33;;;;;;;-144.30;100.00;85541.56;5030987;28;20201;-85
2023/10/26 01:11:08;;;;;;;48.13;23.17;;;;;;;-144.30;100.00;85569.38;5031028;28;20681;-85
2023/10/26 01:13:35;;;;;;;46.83;23.53;;;;;;;-144.30;100.00;85565.41;5030865;28;20194;-86
2023/10/26 01:16:04;;;;;;;50.40;23.93;;;;;;;-144.30;100.00;85571.38;5031574;28;20244;-85
2023/10/26 01:18:32;;;;;;;46.40;24.60;;;;;;;-144.30;100.00;86060.47;5029522;28;20244;-75
2023/10/26 01:20:59;;;;;;;37.10;22.53;;;;;;;-144.30;100.00;85527.63;5029620;28;20749;-76
2023/10/26 01:23:27;;;;;;;45.23;24.53;;;;;;;-144.30;100.00;85557.47;5029776;28;20229;-76
2023/10/26 01:25:58;;;;;;;41.90;22.90;;;;;;;-144.30;100.00;85559.44;5029822;28;20233;-77
2023/10/26 01:28:25;;;;;;;49.10;23.90;;;;;;;-144.30;100.00;85543.53;5029562;28;20292;-75
2023/10/26 01:30:52;;;;;;;39.63;24.27;;;;;;;-144.30;100.00;85585.28;5029221;28;20198;-76
2023/10/26 01:33:19;;;;;;;41.60;24.83;;;;;;;-144.30;100.00;85533.59;5029552;28;20711;-76
2023/10/26 01:35:46;;;;;;;39.37;25.57;;;;;;;-144.30;100.00;85565.41;5029163;28;20232;-77
2023/10/26 01:38:15;;;;;;;52.20;26.53;;;;;;;-144.30;100.00;85577.34;5029652;28;20696;-77
2023/10/26 01:40:43;;;;;;;48.27;26.00;;;;;;;-144.30;100.00;85573.38;5035197;28;20574;-86
2023/10/26 01:43:10;;;;;;;49.80;26.17;;;;;;;-144.30;100.00;85579.31;5035579;28;20204;-85
2023/10/26 01:45:37;;;;;;;48.17;26.17;;;;;;;-144.30;100.00;85575.34;5035799;28;20228;-86
2023/10/26 01:48:05;;;;;;;47.33;25.53;;;;;;;-144.30;100.00;85529.63;5033897;28;20207;-85
2023/10/26 01:50:32;;;;;;;46.90;25.47;;;;;;;-144.30;100.00;85597.22;5033871;28;20292;-86
2023/10/26 01:52:59;;;;;;;50.17;24.40;;;;;;;-144.30;100.00;85623.06;5034730;28;20197;-86
2023/10/26 01:55:26;;;;;;;51.07;25.63;;;;;;;-144.30;100.00;85591.25;5035284;28;20219;-85
2023/10/26 01:57:54;;;;;;;46.40;25.87;;;;;;;-144.30;100.00;85593.25;5034811;28;20216;-85
2023/10/26 02:00:22;;;;;;;48.43;26.07;;;;;;;-144.30;100.00;85571.38;5034672;28;20197;-85
2023/10/26 02:02:49;;;;;;;56.70;26.73;;;;;;;-144.30;100.00;85603.19;5034209;28;20292;-86
2023/10/26 02:05:17;;;;;;;51.07;26.30;;;;;;;-144.30;100.00;85591.25;5034347;28;20245;-86
2023/10/26 02:07:44;;;;;;;54.37;24.80;;;;;;;-144.30;100.00;85611.13;5034331;28;20201;-85
2023/10/26 02:10:15;;;;;;;44.50;25.73;;;;;;;-144.30;100.00;85555.47;5034396;28;20197;-86
2023/10/26 02:12:41;;;;;;;47.37;23.87;;;;;;;-144.30;100.00;85589.28;5033968;28;20197;-86
2023/10/26 02:15:10;;;;;;;46.77;24.37;;;;;;;-144.30;100.00;85619.09;5034917;28;20197;-85
2023/10/26 02:17:37;;;;;;;55.27;25.03;;;;;;;-144.30;100.00;85587.28;5033847;28;20205;-85
2023/10/26 02:20:04;;;;;;;44.47;24.83;;;;;;;-144.30;100.00;85543.53;5032712;28;20205;-85
2023/10/26 02:22:31;;;;;;;48.37;25.87;;;;;;;-144.30;100.00;85555.47;5033902;28;20197;-85
2023/10/26 02:24:58;;;;;;;48.40;24.40;;;;;;;-144.30;100.00;85555.47;5033624;28;20227;-85
2023/10/26 02:27:25;;;;;;;47.40;23.70;;;;;;;-144.30;100.00;85591.25;5033401;28;20201;-86
2023/10/26 02:29:52;;;;;;;47.43;25.33;;;;;;;-144.30;100.00;85557.47;5032779;28;20193;-85
2023/10/26 02:32:21;;;;;;;39.80;23.13;;;;;;;-144.30;100.00;85587.28;5034756;28;20585;-87
2023/10/26 02:34:47;;;;;;;41.37;23.73;;;;;;;-144.30;100.00;85603.19;5034082;28;20233;-86
2023/10/26 02:37:14;;;;;;;45.93;23.27;;;;;;;-144.30;100.00;85557.47;5033500;28;20201;-84
2023/10/26 02:39:41;;;;;;;40.20;24.07;;;;;;;-144.30;100.00;85603.19;5033602;28;20205;-84
2023/10/26 02:42:08;;;;;;;44.17;23.50;;;;;;;-144.30;100.00;85607.16;5034444;28;20201;-85
2023/10/26 02:44:35;;;;;;;37.60;23.33;;;;;;;-144.30;100.00;85599.22;5035033;28;20189;-85
2023/10/26 02:47:02;;;;;;;43.43;23.27;;;;;;;-144.30;100.00;85599.22;5035386;28;20609;-84
2023/10/26 02:49:31;;;;;;;39.53;23.70;;;;;;;-144.30;100.00;85551.50;5035599;28;20198;-85
2023/10/26 02:51:58;;;;;;;47.17;24.10;;;;;;;-144.30;100.00;85585.28;5034646;28;20201;-86
2023/10/26 02:54:27;;;;;;;52.20;26.33;;;;;;;-144.30;100.00;85587.28;5034259;28;20205;-85
2023/10/26 02:56:54;;;;;;;43.77;24.27;;;;;;;-144.30;100.00;85597.22;5035691;28;20220;-83
2023/10/26 02:59:21;;;;;;;41.90;25.43;;;;;;;-144.30;100.00;85615.13;5033020;28;20202;-85
2023/10/26 03:01:48;;;;;;;47.67;26.30;;;;;;;-144.30;100.00;85613.13;5036775;28;20193;-86
2023/10/26 03:04:15;;;;;;;42.17;26.73;;;;;;;-144.30;100.00;85619.09;5032252;28;20204;-86
2023/10/26 03:06:43;;;;;;;40.47;26.63;;;;;;;-144.30;100.00;85605.19;5031970;28;20229;-81
2023/10/26 03:09:10;;;;;;;45.37;25.87;;;;;;;-144.30;100.00;85579.31;5033256;28;20204;-87
2023/10/26 03:11:37;;;;;;;44.63;26.83;;;;;;;-144.30;100.00;85605.19;5032794;28;20193;-86
2023/10/26 03:14:05;;;;;;;46.63;27.50;;;;;;;-144.30;100.00;85619.09;5033293;28;20201;-86
2023/10/26 03:16:32;;;;;;;47.87;26.30;;;;;;;-144.30;100.00;85585.28;5033492;28;20573;-86
2023/10/26 03:18:59;;;;;;;46.30;25.17;;;;;;;-144.30;100.00;85611.13;5033223;28;20208;-86
2023/10/26 03:21:26;;;;;;;49.07;25.13;;;;;;;-144.30;100.00;85513.72;5033133;28;20685;-87
2023/10/26 03:23:54;;;;;;;42.77;24.80;;;;;;;-144.30;100.00;85615.13;5033295;28;20193;-87
2023/10/26 03:26:23;;;;;;;47.10;25.60;;;;;;;-144.30;100.00;85611.13;5032871;28;20213;-85
2023/10/26 03:28:51;;;;;;;48.87;27.63;;;;;;;-144.30;100.00;85593.25;5031848;28;20259;-82
2023/10/26 03:31:18;;;;;;;46.37;25.13;;;;;;;-144.30;100.00;85631.03;5030147;28;20228;-83
2023/10/26 03:33:45;;;;;;;43.67;26.87;;;;;;;-144.30;100.00;85631.03;5044744;28;20233;-83
2023/10/26 03:36:15;;;;;;;43.20;26.13;;;;;;;-144.30;100.00;85619.09;5045021;28;20221;-78
2023/10/26 03:38:43;;;;;;;50.93;25.50;;;;;;;-144.30;100.00;85615.13;5050571;28;20208;-78
2023/10/26 03:41:11;;;;;;;44.77;25.00;;;;;;;-144.30;100.00;85633.00;5049980;28;20201;-78
2023/10/26 03:43:38;;;;;;;56.23;25.93;;;;;;;-144.30;100.00;85627.03;5050562;28;20204;-80
2023/10/26 03:46:06;;;;;;;50.10;27.50;;;;;;;-144.30;100.00;85629.03;5050190;28;20217;-78
2023/10/26 03:48:34;;;;;;;47.53;27.20;;;;;;;-144.30;100.00;85501.78;5050826;28;20665;-79
2023/10/26 03:51:01;;;;;;;45.93;27.90;;;;;;;-144.30;100.00;85615.13;5045100;28;20189;-76
2023/10/26 03:53:28;;;;;;;44.17;28.13;;;;;;;-144.30;100.00;85547.53;5029703;28;20597;-77
2023/10/26 03:55:55;;;;;;;49.37;27.53;;;;;;;-144.30;100.00;85450.09;5029903;28;20584;-78
2023/10/26 03:58:24;;;;;;;41.93;27.03;;;;;;;-144.30;100.00;85613.13;5030327;28;20696;-78
2023/10/26 04:00:53;;;;;;;54.80;28.23;;;;;;;-144.30;100.00;85629.03;5030237;28;20215;-77
2023/10/26 04:03:20;;;;;;;46.40;25.57;;;;;;;-144.30;100.00;85631.03;5029201;28;20195;-77
2023/10/26 04:05:47;;;;;;;53.47;27.13;;;;;;;-144.30;100.00;85531.63;5029640;28;20213;-77
2023/10/26 04:08:14;;;;;;;45.87;27.87;;;;;;;-144.30;100.00;85458.06;5029875;28;20330;-78
2023/10/26 04:10:42;;;;;;;49.57;26.33;;;;;;;-144.30;100.00;85648.91;5030394;28;20228;-80
2023/10/26 04:13:09;;;;;;;42.73;27.83;;;;;;;-144.30;100.00;85575.34;5029797;28;20633;-83
2023/10/26 04:15:37;;;;;;;40.47;26.90;;;;;;;-144.30;100.00;85591.25;5029452;28;20319;-76
2023/10/26 04:18:05;;;;;;;50.43;27.57;;;;;;;-144.30;100.00;85629.03;5028798;28;20684;-77
2023/10/26 04:20:32;;;;;;;47.13;29.47;;;;;;;-144.30;100.00;85638.97;5030020;28;20209;-78
2023/10/26 04:22:59;;;;;;;57.33;29.93;;;;;;;-144.30;100.00;85636.97;5030704;28;20223;-76
2023/10/26 04:25:28;;;;;;;48.80;28.50;;;;;;;-144.30;100.00;85662.81;5029964;28;20197;-77
2023/10/26 04:27:56;;;;;;;56.37;29.47;;;;;;;-144.30;100.00;85583.31;5029527;28;20298;-76
2023/10/26 04:30:23;;;;;;;43.77;27.57;;;;;;;-144.30;100.00;85660.84;5029878;28;20206;-82
2023/10/26 04:32:52;;;;;;;43.37;27.60;;;;;;;-144.30;100.00;85678.72;5035251;28;20204;-76
2023/10/26 04:35:19;;;;;;;53.70;28.17;;;;;;;-144.30;100.00;85672.75;5046420;28;20217;-75
2023/10/26 04:37:46;;;;;;;46.93;27.73;;;;;;;-144.30;100.00;85662.81;5033258;28;20271;-75
2023/10/26 04:40:16;;;;;;;47.47;26.17;;;;;;;-144.30;100.00;85615.13;5048211;28;20748;-76
2023/10/26 04:42:43;;;;;;;51.13;27.43;;;;;;;-144.30;100.00;85646.91;5047366;28;20204;-76
2023/10/26 04:45:10;;;;;;;69.20;31.33;;;;;;;-144.30;100.00;85660.84;5052113;28;20239;-77
2023/10/26 04:47:37;;;;;;;67.57;35.10;;;;;;;-144.30;100.00;85652.88;5050177;28;20216;-79
2023/10/26 04:50:07;;;;;;;62.20;33.73;;;;;;;-144.30;100.00;85619.09;5051242;28;20214;-76
2023/10/26 04:52:34;;;;;;;61.43;30.47;;;;;;;-144.30;100.00;85597.22;5049812;28;20204;-77
2023/10/26 04:55:01;;;;;;;56.40;28.13;;;;;;;-144.30;100.00;86191.69;5044422;28;20224;-76
2023/10/26 04:57:28;;;;;;;50.07;28.87;;;;;;;-144.30;100.00;85658.84;5029821;28;20216;-75
2023/10/26 04:59:55;;;;;;;54.43;26.97;;;;;;;-144.30;100.00;85619.09;5027104;28;20216;-77
2023/10/26 05:02:22;;;;;;;48.43;27.47;;;;;;;-144.30;100.00;85579.31;5029283;28;20597;-76
2023/10/26 05:04:48;;;;;;;51.77;25.80;;;;;;;-144.30;100.00;85577.34;5029936;28;20190;-76
2023/10/26 05:07:17;;;;;;;44.43;27.43;;;;;;;-144.30;100.00;85627.03;5029755;28;20231;-76
2023/10/26 05:09:44;;;;;;;48.67;27.53;;;;;;;-144.30;100.00;85547.53;5030007;28;20625;-76
2023/10/26 05:12:11;;;;;;;55.33;27.50;;;;;;;-144.30;100.00;85623.06;5029883;28;20201;-75
2023/10/26 05:14:39;;;;;;;46.83;27.33;;;;;;;-144.30;100.00;85627.03;5031788;28;20204;-76
2023/10/26 05:17:05;;;;;;;52.00;29.10;;;;;;;-144.30;100.00;85625.06;5033421;28;20251;-75
2023/10/26 05:19:33;;;;;;;54.10;28.10;;;;;;;-144.30;100.00;85579.31;5033387;28;20197;-76
2023/10/26 05:22:00;;;;;;;52.33;27.50;;;;;;;-144.30;100.00;85646.91;5032622;28;20259;-75
2023/10/26 05:24:29;;;;;;;43.63;27.03;;;;;;;-144.30;100.00;85185.72;5033484;28;20251;-77
2023/10/26 05:26:56;;;;;;;54.30;28.50;;;;;;;-144.30;100.00;85627.03;5033155;28;20221;-76
2023/10/26 05:29:22;;;;;;;54.17;27.33;;;;;;;-144.30;100.00;85638.97;5033483;28;20193;-76
2023/10/26 05:31:49;;;;;;;46.40;26.73;;;;;;;-144.30;100.00;85253.31;5033564;28;20197;-78
2023/10/26 05:34:16;;;;;;;47.00;27.37;;;;;;;-144.30;100.00;85615.13;5033709;28;20201;-79
2023/10/26 05:36:43;;;;;;;56.73;26.93;;;;;;;-144.30;100.00;85344.75;5033591;28;20256;-80
2023/10/26 05:39:10;;;;;;;46.50;25.53;;;;;;;-144.30;100.00;85623.06;5034675;28;20292;-80
2023/10/26 05:41:38;;;;;;;53.77;28.00;;;;;;;-144.30;100.00;85690.66;5033416;28;20193;-77
2023/10/26 05:44:08;;;;;;;49.83;25.70;;;;;;;-144.30;100.00;85585.28;5033341;28;20206;-79
2023/10/26 05:46:36;;;;;;;57.17;26.10;;;;;;;-144.30;100.00;85654.88;5032524;28;20252;-77
2023/10/26 05:49:04;;;;;;;53.37;26.87;;;;;;;-144.30;100.00;85646.91;5033356;28;20207;-80
2023/10/26 05:51:30;;;;;;;50.67;25.97;;;;;;;-144.30;100.00;85638.97;5033588;28;20660;-82
2023/10/26 05:53:58;;;;;;;50.53;25.60;;;;;;;-144.30;100.00;85648.91;5033720;28;20598;-81
2023/10/26 05:56:25;;;;;;;65.40;28.20;;;;;;;-144.30;100.00;85627.03;5034353;28;20593;-78
2023/10/26 05:58:53;;;;;;;49.70;25.83;;;;;;;-144.30;100.00;85631.03;5033348;28;20219;-81
2023/10/26 06:01:20;;;;;;;59.80;27.87;;;;;;;-144.30;100.00;85362.63;5033627;28;20200;-81
2023/10/26 06:03:47;;;;;;;51.60;26.80;;;;;;;-144.30;100.00;85638.97;5033184;28;20201;-82
2023/10/26 06:06:14;;;;;;;48.30;26.47;;;;;;;-144.30;100.00;85611.13;5033107;28;20256;-79
2023/10/26 06:08:41;;;;;;;47.00;26.10;;;;;;;-144.30;100.00;85511.75;5033131;28;20189;-82
2023/10/26 06:11:11;;;;;;;54.00;26.47;;;;;;;-144.30;100.00;85597.22;5032625;28;20229;-82
2023/10/26 06:13:38;;;;;;;50.27;24.60;;;;;;;-144.30;100.00;85611.13;5031984;28;20212;-78
2023/10/26 06:16:12;;;;;;;50.93;25.73;;;;;;;-144.30;100.00;85569.38;5032767;28;20208;-80
2023/10/26 06:18:39;;;;;;;55.30;25.63;;;;;;;-144.30;100.00;85563.41;5033220;28;20239;-80
2023/10/26 06:21:07;;;;;;;52.77;25.37;;;;;;;-144.30;100.00;85587.28;5032608;28;20748;-80
2023/10/26 06:23:34;;;;;;;52.27;26.37;;;;;;;-144.30;100.00;85436.19;5033297;28;20601;-81
2023/10/26 06:26:05;;;;;;;47.97;26.33;;;;;;;-144.30;100.00;85452.09;5032604;28;20204;-82
2023/10/26 06:28:32;;;;;;;52.23;25.50;;;;;;;-144.30;100.00;85563.41;5033076;28;20654;-80
2023/10/26 06:31:10;;;;;;;52.23;25.77;;;;;;;-144.30;100.00;85591.25;5032164;28;20211;-80
2023/10/26 06:33:37;;;;;;;46.53;25.37;;;;;;;-144.30;100.00;85585.28;5032152;28;20193;-79
2023/10/26 06:36:05;;;;;;;47.97;25.47;;;;;;;-144.30;100.00;85569.38;5039621;28;20306;-79
2023/10/26 06:38:32;;;;;;;47.83;23.87;;;;;;;-144.30;100.00;85523.66;5052243;28;20203;-77
2023/10/26 06:40:59;;;;;;;45.03;24.70;;;;;;;-144.30;100.00;85543.53;5051725;28;20203;-80
2023/10/26 06:43:26;;;;;;;51.13;24.77;;;;;;;-144.30;100.00;85507.75;5045706;28;20215;-78
2023/10/26 06:45:56;;;;;;;56.03;24.47;;;;;;;-144.30;100.00;85827.84;5034547;28;20208;-78
2023/10/26 06:48:24;;;;;;;56.50;25.87;;;;;;;-144.30;100.00;85515.72;5051278;28;20630;-80
2023/10/26 06:50:58;;;;;;;48.37;23.87;;;;;;;-144.30;100.00;85587.28;5051292;28;20208;-81
2023/10/26 06:53:25;;;;;;;50.33;25.20;;;;;;;-144.30;100.00;85511.75;5050760;28;20257;-82
2023/10/26 06:55:53;;;;;;;46.10;24.37;;;;;;;-144.30;100.00;85535.59;5047576;28;20201;-80
2023/10/26 06:58:20;;;;;;;57.97;24.60;;;;;;;-144.30;100.00;85547.53;5030207;28;20292;-80
2023/10/26 07:00:47;;;;;;;41.73;22.87;;;;;;;-144.30;100.00;85416.31;5031147;28;20284;-79
2023/10/26 07:03:14;;;;;;;56.97;22.90;;;;;;;-144.30;100.00;85537.59;5031612;28;20197;-78
2023/10/26 07:05:42;;;;;;;54.17;21.60;;;;;;;-144.30;100.00;85392.47;5031945;28;21002;-80
2023/10/26 07:08:09;;;;;;;54.47;22.40;;;;;;;-144.30;100.00;85491.84;5031768;28;20671;-79
2023/10/26 07:10:40;;;;;;;49.20;21.47;;;;;;;-144.30;100.00;85475.94;5025141;28;20209;-81
2023/10/26 07:13:09;;;;;;;46.90;20.60;;;;;;;-144.30;100.00;85471.97;5031306;28;20201;-81
2023/10/26 07:15:37;;;;;;;44.57;20.83;;;;;;;-144.30;100.00;85481.91;5031839;28;20220;-80
2023/10/26 07:18:04;;;;;;;42.40;19.93;;;;;;;-144.30;100.00;85511.75;5030652;28;20198;-79
2023/10/26 07:20:33;;;;;;;51.40;21.50;;;;;;;-144.30;100.00;85527.63;5030953;28;20201;-79
2023/10/26 07:23:01;;;;;;;55.83;21.07;;;;;;;-144.30;100.00;85507.75;5028145;28;20205;-78
2023/10/26 07:25:28;;;;;;;49.30;20.85;;;;;;;-144.30;100.00;85473.97;5034180;28;20203;-79
2023/10/26 07:27:55;;;;;;;48.63;18.00;;;;;;;-144.30;100.00;85374.56;5050647;28;20716;-79
2023/10/26 07:30:24;;;;;;;44.65;18.17;;;;;;;-144.30;100.00;85450.09;5050345;28;20227;-80
2023/10/26 07:32:51;;;;;;;45.43;19.10;;;;;;;-144.30;100.00;85442.16;5050782;28;20760;-80
2023/10/26 07:35:20;;;;;;;42.03;17.52;;;;;;;-144.30;100.00;85456.06;5051068;28;20695;-79
2023/10/26 07:37:47;;;;;;;49.22;17.08;;;;;;;-144.30;100.00;85448.13;5049775;28;20200;-79
2023/10/26 07:40:16;;;;;;;49.43;17.93;;;;;;;-144.30;99.98;86004.78;5050985;28;20235;-79
2023/10/26 07:42:42;;;;;;;53.75;17.92;;;;;;;-144.30;99.56;85485.88;5050793;28;20243;-78
2023/10/26 07:45:10;;;;;;;37.95;16.90;;;;;;;-144.30;98.93;85277.16;5050623;28;20196;-79
2023/10/26 07:47:37;;;;;;;37.08;16.85;;;;;;;-144.30;98.09;85336.78;5050650;28;20221;-80
2023/10/26 07:50:05;;;;;;;44.63;17.00;;;;;;;-144.30;97.15;85086.31;5050965;28;20228;-79
2023/10/26 07:52:32;;;;;;;45.97;19.02;;;;;;;-144.30;96.42;85247.34;5050580;28;20200;-80
2023/10/26 07:54:59;;;;;;;39.08;17.58;;;;;;;-144.30;96.08;85171.81;5039377;28;20232;-80
2023/10/26 07:57:27;;;;;;;65.03;20.33;;;;;;;-144.30;96.20;85301.00;5047090;28;20220;-80
2023/10/26 07:59:55;;;;;;;40.28;18.08;;;;;;;-144.30;95.64;85295.06;5050795;28;20204;-79
2023/10/26 08:02:22;;;;;;;43.88;19.48;;;;;;;-144.30;95.40;85285.09;5050850;28;20201;-80
2023/10/26 08:04:50;;;;;;;50.67;18.90;;;;;;;-144.30;95.14;85243.38;5047937;28;20212;-80
2023/10/26 08:07:17;;;;;;;50.15;19.35;;;;;;;-144.30;94.43;85217.53;5040483;28;20235;-79
2023/10/26 08:09:44;;;;;;;48.35;18.17;;;;;;;-144.30;93.61;85207.59;5050027;28;20207;-79
2023/10/26 08:12:12;;;;;;;50.97;17.25;;;;;;;-144.30;93.08;85193.66;5050450;28;20279;-79
2023/10/26 08:14:41;;;;;;;43.45;16.85;;;;;;;-144.30;91.78;85116.16;5050659;28;20200;-79
2023/10/26 08:17:08;;;;;;;53.65;14.80;;;;;;;-144.30;91.09;85134.03;5050761;28;20709;-81
2023/10/26 08:19:35;;;;;;;43.28;15.18;;;;;;;-144.30;90.97;85155.91;5051403;28;20199;-81
2023/10/26 08:22:01;;;;;;;40.55;14.68;;;;;;;-144.30;91.41;85143.97;5036576;28;20215;-81
2023/10/26 08:24:28;;;;;;;38.20;14.63;;;;;;;-144.30;91.91;85082.34;5029982;28;20648;-79
2023/10/26 08:26:55;;;;;;;44.17;14.85;;;;;;;-144.30;92.32;85219.50;5030503;28;20221;-80
2023/10/26 08:29:24;;;;;;;31.58;13.63;;;;;;;-144.30;92.43;85038.63;5030986;28;20593;-79
2023/10/26 08:31:52;;;;;;;39.80;13.90;;;;;;;-144.30;92.32;85193.66;5030414;28;20251;-80
2023/10/26 08:34:19;;;;;;;41.50;14.13;;;;;;;-144.30;91.82;85181.75;5030815;28;20247;-80
2023/10/26 08:36:46;;;;;;;39.70;13.45;;;;;;;-144.30;91.98;85096.25;5029978;28;20233;-80
2023/10/26 08:39:13;;;;;;;38.65;12.23;;;;;;;-144.30;91.56;84990.91;5029908;28;20197;-80
2023/10/26 08:41:46;;;;;;;39.83;12.85;;;;;;;-144.30;91.32;85141.97;5031633;28;20287;-81
2023/10/26 08:44:13;;;;;;;35.97;13.05;;;;;;;-144.30;90.98;85118.13;5030738;28;20284;-79
2023/10/26 08:46:41;;;;;;;42.50;13.73;;;;;;;-144.30;90.58;85102.22;5030862;28;20212;-80
2023/10/26 08:49:12;;;;;;;43.75;13.02;;;;;;;-144.30;90.22;85082.34;5033536;28;20331;-81
2023/10/26 08:51:39;;;;;;;37.67;12.18;;;;;;;-144.30;90.22;85122.09;5034458;28;20256;-81
2023/10/26 08:54:06;;;;;;;44.25;11.95;;;;;;;-144.30;89.83;85066.44;5034183;28;20661;-81
2023/10/26 08:56:33;;;;;;;38.90;11.43;;;;;;;-144.30;89.58;85040.59;5034582;28;20731;-79
2023/10/26 08:59:03;;;;;;;36.40;10.52;;;;;;;-144.30;89.13;85583.31;5034849;28;20275;-80
2023/10/26 09:01:30;;;;;;;34.30;10.32;;;;;;;-144.30;88.64;84897.50;5036064;28;20201;-81
2023/10/26 09:03:57;;;;;;;33.90;11.02;;;;;;;-144.30;88.91;84547.69;5034357;28;20727;-80
2023/10/26 09:06:25;;;;;;;47.00;12.13;;;;;;;-144.30;89.33;85062.47;5034563;28;20287;-81
2023/10/26 09:09:01;;;;;;;42.55;11.98;;;;;;;-144.30;89.42;85068.44;5033201;28;20220;-83
2023/10/26 09:11:28;;;;;;;46.58;12.20;;;;;;;-144.30;89.44;85028.69;5056242;28;20207;-84
2023/10/26 09:13:55;;;;;;;35.80;11.40;;;;;;;-144.30;88.89;85034.66;5043553;28;20201;-85
2023/10/26 09:16:36;;;;;;;51.47;12.07;;;;;;;-144.30;88.96;85026.69;5054963;28;20281;-80
2023/10/26 09:19:04;;;;;;;38.72;11.43;;;;;;;-144.30;88.70;85046.56;5055409;28;20277;-79
2023/10/26 09:21:49;;;;;;;55.47;11.88;;;;;;;-144.30;88.34;84988.94;5054672;28;20275;-81
2023/10/26 09:24:21;;;;;;;36.85;11.52;;;;;;;-144.30;88.42;85026.69;5053509;28;20192;-81
2023/10/26 09:26:48;;;;;;;42.42;12.43;;;;;;;-144.30;88.97;85026.69;5055163;28;20685;-81
2023/10/26 09:29:15;;;;;;;45.33;12.57;;;;;;;-144.30;88.72;84988.94;5054685;28;20227;-82
2023/10/26 09:31:52;;;;;;;43.70;12.23;;;;;;;-144.30;88.04;84879.59;5055270;28;20628;-82
2023/10/26 09:34:19;;;;;;;34.22;10.73;;;;;;;-144.30;87.82;85350.72;5036111;28;20197;-83
2023/10/26 09:37:03;;;;;;;34.92;11.48;;;;;;;-144.30;88.21;84977.00;5036004;28;20633;-80
2023/10/26 09:39:33;;;;;;;41.78;12.18;;;;;;;-144.30;87.78;84994.91;5043622;28;20204;-81
2023/10/26 09:42:01;;;;;;;37.22;12.00;;;;;;;-144.30;87.45;84927.31;5040231;28;20248;-82
2023/10/26 09:44:28;;;;;;;37.40;11.65;;;;;;;-144.30;87.10;84977.00;5039873;28;20198;-80
2023/10/26 09:46:56;;;;;;;38.30;11.73;;;;;;;-144.30;86.64;84899.47;5040801;28;20251;-81
2023/10/26 09:49:24;;;;;;;38.03;11.15;;;;;;;-144.30;86.00;84907.44;5037988;28;20227;-79
2023/10/26 09:51:51;;;;;;;35.20;10.75;;;;;;;-144.30;85.17;84754.38;5036941;28;20201;-80
2023/10/26 09:54:22;;;;;;;35.63;11.10;;;;;;;-144.30;84.75;84911.41;5039795;28;20194;-78
2023/10/26 09:56:55;;;;;;;38.10;10.25;;;;;;;-144.30;84.99;84975.00;5055901;28;20258;-78
2023/10/26 09:59:23;;;;;;;34.38;10.57;;;;;;;-144.30;85.09;85368.59;5044266;28;20194;-75
2023/10/26 10:01:50;;;;;;;30.05;10.32;;;;;;;-144.30;84.79;84963.09;5019816;28;20198;-79
2023/10/26 10:04:18;;;;;;;43.33;10.20;;;;;;;-144.30;84.60;84967.06;5016700;28;20205;-78
2023/10/26 10:06:48;;;;;;;41.55;10.82;;;;;;;-144.30;84.50;84927.31;5033577;28;20212;-79
2023/10/26 10:09:17;;;;;;;45.00;11.00;;;;;;;-144.30;85.15;84967.06;5037807;28;20645;-82
2023/10/26 10:11:45;;;;;;;38.95;11.23;;;;;;;-144.30;84.84;84939.25;5036057;28;20193;-80
2023/10/26 10:14:45;;;;;;;37.83;11.60;;;;;;;-144.30;85.03;84990.91;5037557;28;20251;-79
2023/10/26 10:17:12;;;;;;;34.92;11.38;;;;;;;-144.30;84.88;84955.13;5034902;28;20627;-79
2023/10/26 10:19:40;;;;;;;37.45;11.23;;;;;;;-144.30;84.92;84875.63;5032270;28;20574;-81
2023/10/26 10:22:49;;;;;;;39.20;11.38;;;;;;;-144.30;85.24;84939.25;5032465;28;20189;-80
2023/10/26 10:25:23;;;;;;;33.42;11.25;;;;;;;-144.30;84.53;84955.13;5030539;28;20228;-80
2023/10/26 10:28:12;;;;;;;44.80;11.25;;;;;;;-144.30;84.58;84949.19;5029090;28;20253;-81
2023/10/26 10:30:50;;;;;;;52.65;12.98;;;;;;;-144.30;84.69;84903.47;5034771;28;20288;-79
2023/10/26 10:33:23;;;;;;;40.65;12.13;;;;;;;-144.30;85.16;84935.25;5034900;28;20232;-80
2023/10/26 10:35:58;;;;;;;44.53;12.27;;;;;;;-144.30;84.69;84851.78;5031967;28;20229;-81
2023/10/26 10:38:25;;;;;;;54.53;12.80;;;;;;;-144.30;84.70;84975.00;5033273;28;20193;-77
2023/10/26 10:41:14;;;;;;;45.15;11.65;;;;;;;-144.30;84.58;84891.53;5037908;28;20252;-83
2023/10/26 10:43:47;;;;;;;48.42;12.68;;;;;;;-144.30;83.29;84907.44;5034436;28;20560;-78
2023/10/26 10:46:16;;;;;;;40.83;11.85;;;;;;;-144.30;83.19;84891.53;5032213;28;20314;-78
2023/10/26 10:48:57;;;;;;;61.95;12.32;;;;;;;-144.30;83.26;84963.09;5034224;28;20568;-81
2023/10/26 10:51:29;;;;;;;45.83;11.93;;;;;;;-144.30;83.61;84887.56;5042004;28;20653;-80
2023/10/26 10:53:56;;;;;;;57.03;14.10;;;;;;;-144.30;83.17;84907.44;5035847;28;20200;-81
2023/10/26 10:56:24;;;;;;;41.28;11.80;;;;;;;-144.30;82.65;84959.13;5037056;28;20217;-83
2023/10/26 10:58:54;;;;;;;29.98;11.77;;;;;;;-144.30;82.44;84929.28;5035542;28;20197;-84
2023/10/26 11:01:21;;;;;;;47.47;13.25;;;;;;;-144.30;82.24;84891.53;5038111;28;20204;-83
2023/10/26 11:03:49;;;;;;;49.85;13.70;;;;;;;-144.30;82.18;84720.59;5036780;28;20204;-84